Jersey Shore, Pennsylvania
Current Conditions -  °F | °C
As of 9:54 AM on Sunday 23 Nov 2014 (Local Time) from KIPT Reporting Station
Overcast Overcast  
Wind Chill: 37°   Ceiling: 11000
Heat Index: 37°   Visibility: 9mi
Dew Point: 29°   Wind: 0mph
Humidity: 73%   Direction: NA
Pressure: 30.18"   Gusts: NA
Location:  41.2°N, 77.27°W
Report Text: KIPT 231454Z 00000KT 9SM SCT075 OVC110 03/M02 A3018 RMK AO2 SLP224 60000 T00281017 51001
Loading
Personal Weather Stations






























Interactive Weather Map New forecast layout! Learn more

10-Day Weather Forecast

Advertisements
Track Severe Weather on mobile